Currently 63°F in Perris, California, USA
63°F
68°F / 51°F
calm
0.00"
Thursday, April 2, 2020 5:53 PM PDT

Perris, California Weather Summary
Last 36 Hours

Temperature Winds Hourly Humidity Dewpoint
Time Report Norm Report Norm Max Gusts Precip. Rpt. Norm Rpt. Norm Pressure
1Thu 05:53 PM  63.1°F  69°F  calm  6 mph  none  0.00"  75%  39%  55°F  42°F  29.90"
Thu 05:00 PM  64.3°F  71°F  calm  6 mph  none  0.00"  70%  36%  54°F  42°F  29.90"
2Thu 04:24 PM  67.6°F  72°F  calm  6 mph  none  ----  60%  35%  53°F  42°F  29.90"
Thu 04:00 PM  66.9°F  73°F  calm  5 mph  none  0.00"  58%  34%  51°F  42°F  29.90"
Thu 03:00 PM  65.2°F  73°F  calm  5 mph  none  0.00"  61%  33%  51°F  41°F  29.92"
Thu 02:00 PM  64.3°F  72°F  calm  4 mph  none  0.00"  64%  34%  51°F  41°F  29.93"
Thu 01:00 PM  63.6°F  70°F  calm  4 mph  none  0.00"  65%  36%  51°F  41°F  29.94"
Thu 12:00 PM  61.2°F  68°F  calm  4 mph  none  0.00"  72%  42%  52°F  43°F  29.95"
Thu 11:00 AM  59.3°F  64°F  calm  3 mph  none  0.00"  79%  51%  53°F  45°F  29.96"
Thu 10:00 AM  56.7°F  60°F  calm  3 mph  none  0.00"  91%  63%  54°F  47°F  29.96"
Thu 09:00 AM  53.7°F  55°F  calm  2 mph  none  0.00"  96%  76%  53°F  47°F  29.96"
Thu 08:00 AM  52.6°F  50°F  calm  2 mph  none  0.00"  98%  86%  52°F  45°F  29.94"
Thu 07:00 AM  51.1°F  48°F  calm  1 mph  none  0.00"  99%  85%  51°F  44°F  29.93"
3Thu 06:53 AM  51.0°F  48°F  calm  1 mph  none  ----  99%  85%  51°F  44°F  29.92"
Thu 06:00 AM  52.2°F  49°F  calm  1 mph  none  0.00"  97%  85%  51°F  44°F  29.92"
Thu 05:00 AM  52.8°F  49°F  calm  1 mph  none  0.00"  96%  84%  52°F  45°F  29.92"
Thu 04:00 AM  52.4°F  50°F  calm  1 mph  none  0.00"  96%  83%  51°F  45°F  29.92"
Thu 03:00 AM  52.3°F  51°F  calm  1 mph  none  0.00"  96%  81%  51°F  45°F  29.92"
Thu 02:00 AM  51.7°F  52°F  calm  2 mph  none  0.00"  98%  78%  51°F  45°F  29.91"
Thu 01:00 AM  51.8°F  53°F  calm  2 mph  none  0.00"  99%  75%  52°F  45°F  29.90"
Thu 12:00 AM  52.7°F  55°F  calm  2 mph  none  0.00"  99%  73%  53°F  46°F  29.89"
Wed 11:00 PM  53.0°F  56°F  calm  2 mph  none  0.00"  99%  70%  53°F  46°F  29.88"
Wed 10:00 PM  54.1°F  57°F  calm  2 mph  none  0.00"  97%  66%  53°F  46°F  29.87"
Wed 09:00 PM  56.2°F  59°F  calm  3 mph  none  0.00"  87%  61%  52°F  45°F  29.85"
Wed 08:00 PM  58.3°F  62°F  calm  3 mph  none  0.00"  80%  55%  52°F  45°F  29.82"
Wed 07:00 PM  65.5°F  65°F  calm  4 mph  none  0.00"  60%  47%  51°F  44°F  29.80"
Wed 06:00 PM  69.4°F  69°F  calm  6 mph  none  0.00"  49%  40%  49°F  42°F  29.79"
Wed 05:00 PM  71.7°F  71°F  calm  6 mph  none  0.00"  49%  36%  51°F  42°F  29.80"
Wed 04:00 PM  74.1°F  72°F  calm  5 mph  none  0.00"  45%  34%  50°F  42°F  29.80"
Wed 03:00 PM  72.0°F  72°F  calm  5 mph  none  0.00"  48%  33%  50°F  41°F  29.80"
Wed 02:00 PM  74.2°F  72°F  calm  4 mph  none  0.00"  44%  34%  50°F  41°F  29.82"
Wed 01:00 PM  72.8°F  70°F  calm  4 mph  none  0.00"  46%  36%  50°F  41°F  29.83"
Wed 12:00 PM  70.6°F  68°F  calm  3 mph  none  0.00"  52%  42%  52°F  43°F  29.85"
Wed 11:00 AM  66.9°F  64°F  calm  3 mph  none  0.00"  59%  52%  51°F  45°F  29.88"
Wed 10:00 AM  63.5°F  60°F  calm  3 mph  none  0.00"  71%  64%  53°F  47°F  29.90"
Wed 09:00 AM  57.9°F  55°F  calm  2 mph  none  0.00"  83%  77%  53°F  47°F  29.89"
Wed 08:00 AM  51.3°F  49°F  calm  2 mph  none  0.00"  91%  87%  49°F  45°F  29.88"
Wed 07:00 AM  50.8°F  48°F  calm  1 mph  none  0.00"  87%  86%  47°F  44°F  29.86"
Wed 06:00 AM  51.5°F  48°F  calm  1 mph  none  0.00"  90%  86%  48°F  44°F  29.85"

  1. Current weather data. No green row appears if the current weather data is also the high or low for the current day.
  2. High temperature for the current day.
  3. Low temperature for the current day.

The Perris, California weather pages are a service of WeatherCurrents. Perris is located in Southern California's Inland Empire, south of Riverside and north of Sun City, along the Interstate 215 freeway.
Copyright ©2020  WeatherCurrents. All rights reserved. - Submit questions and comments - Privacy Policy

This page automatically refreshes every 10 minutes.